sensor_id;sensor_type;location;lat;lon;timestamp;P1;durP1;ratioP1;P2;durP2;ratioP2
10904;SDS011;5505;51.450;9.254;2023-05-02T00:02:26;3.33;;;3.13;;
10904;SDS011;5505;51.450;9.254;2023-05-02T00:05:14;3.97;;;3.20;;
10904;SDS011;5505;51.450;9.254;2023-05-02T00:08:01;3.80;;;3.50;;
10904;SDS011;5505;51.450;9.254;2023-05-02T00:10:48;3.80;;;3.50;;
10904;SDS011;5505;51.450;9.254;2023-05-02T00:13:36;3.47;;;3.17;;
10904;SDS011;5505;51.450;9.254;2023-05-02T00:16:23;3.60;;;3.30;;
10904;SDS011;5505;51.450;9.254;2023-05-02T00:19:10;5.67;;;3.27;;
10904;SDS011;5505;51.450;9.254;2023-05-02T00:21:57;3.43;;;3.13;;
10904;SDS011;5505;51.450;9.254;2023-05-02T00:24:44;3.23;;;2.93;;
10904;SDS011;5505;51.450;9.254;2023-05-02T00:27:31;3.70;;;3.40;;
10904;SDS011;5505;51.450;9.254;2023-05-02T00:30:20;3.33;;;3.10;;
10904;SDS011;5505;51.450;9.254;2023-05-02T00:33:07;3.60;;;3.30;;
10904;SDS011;5505;51.450;9.254;2023-05-02T00:35:56;3.70;;;3.40;;
10904;SDS011;5505;51.450;9.254;2023-05-02T00:38:43;3.80;;;3.50;;
10904;SDS011;5505;51.450;9.254;2023-05-02T00:41:30;3.53;;;3.23;;
10904;SDS011;5505;51.450;9.254;2023-05-02T00:44:17;3.70;;;3.40;;
10904;SDS011;5505;51.450;9.254;2023-05-02T00:47:06;4.53;;;3.30;;
10904;SDS011;5505;51.450;9.254;2023-05-02T00:49:53;3.37;;;3.10;;
10904;SDS011;5505;51.450;9.254;2023-05-02T00:52:40;3.30;;;3.00;;
10904;SDS011;5505;51.450;9.254;2023-05-02T00:55:27;3.80;;;3.13;;
10904;SDS011;5505;51.450;9.254;2023-05-02T00:58:15;3.60;;;3.40;;
10904;SDS011;5505;51.450;9.254;2023-05-02T01:01:08;3.63;;;3.33;;
10904;SDS011;5505;51.450;9.254;2023-05-02T01:04:02;4.50;;;4.10;;
10904;SDS011;5505;51.450;9.254;2023-05-02T01:06:58;5.17;;;4.50;;
10904;SDS011;5505;51.450;9.254;2023-05-02T01:09:51;5.87;;;5.27;;
10904;SDS011;5505;51.450;9.254;2023-05-02T01:12:44;8.07;;;5.80;;
10904;SDS011;5505;51.450;9.254;2023-05-02T01:15:32;6.27;;;5.73;;
10904;SDS011;5505;51.450;9.254;2023-05-02T01:18:21;7.20;;;6.03;;
10904;SDS011;5505;51.450;9.254;2023-05-02T01:21:10;6.70;;;6.10;;
10904;SDS011;5505;51.450;9.254;2023-05-02T01:23:59;6.93;;;6.27;;
10904;SDS011;5505;51.450;9.254;2023-05-02T01:26:50;7.53;;;6.17;;
10904;SDS011;5505;51.450;9.254;2023-05-02T01:29:39;8.90;;;7.67;;
10904;SDS011;5505;51.450;9.254;2023-05-02T01:32:27;8.37;;;7.57;;
10904;SDS011;5505;51.450;9.254;2023-05-02T01:35:15;8.63;;;7.80;;
10904;SDS011;5505;51.450;9.254;2023-05-02T01:38:03;8.60;;;7.80;;
10904;SDS011;5505;51.450;9.254;2023-05-02T01:40:51;9.40;;;8.50;;
10904;SDS011;5505;51.450;9.254;2023-05-02T01:43:39;9.13;;;8.23;;
10904;SDS011;5505;51.450;9.254;2023-05-02T01:46:30;9.40;;;8.47;;
10904;SDS011;5505;51.450;9.254;2023-05-02T01:49:19;9.70;;;8.70;;
10904;SDS011;5505;51.450;9.254;2023-05-02T01:52:07;10.57;;;9.03;;
10904;SDS011;5505;51.450;9.254;2023-05-02T01:54:57;9.53;;;8.70;;
10904;SDS011;5505;51.450;9.254;2023-05-02T01:57:45;9.77;;;8.83;;
10904;SDS011;5505;51.450;9.254;2023-05-02T02:00:34;10.33;;;9.27;;
10904;SDS011;5505;51.450;9.254;2023-05-02T02:03:23;10.57;;;9.60;;
10904;SDS011;5505;51.450;9.254;2023-05-02T02:06:10;11.80;;;9.60;;
10904;SDS011;5505;51.450;9.254;2023-05-02T02:08:58;9.87;;;8.90;;
10904;SDS011;5505;51.450;9.254;2023-05-02T02:11:46;9.93;;;9.03;;
10904;SDS011;5505;51.450;9.254;2023-05-02T02:14:37;9.60;;;8.70;;
10904;SDS011;5505;51.450;9.254;2023-05-02T02:17:24;10.80;;;9.67;;
10904;SDS011;5505;51.450;9.254;2023-05-02T02:20:14;11.10;;;10.00;;
10904;SDS011;5505;51.450;9.254;2023-05-02T02:23:02;11.87;;;10.67;;
10904;SDS011;5505;51.450;9.254;2023-05-02T02:25:50;11.57;;;10.47;;
10904;SDS011;5505;51.450;9.254;2023-05-02T02:28:38;12.20;;;11.00;;
10904;SDS011;5505;51.450;9.254;2023-05-02T02:31:29;12.07;;;10.93;;
10904;SDS011;5505;51.450;9.254;2023-05-02T02:34:16;12.37;;;11.17;;
10904;SDS011;5505;51.450;9.254;2023-05-02T02:37:06;12.70;;;11.50;;
10904;SDS011;5505;51.450;9.254;2023-05-02T02:39:57;12.63;;;11.43;;
10904;SDS011;5505;51.450;9.254;2023-05-02T02:42:49;12.30;;;11.20;;
10904;SDS011;5505;51.450;9.254;2023-05-02T02:45:39;15.53;;;11.67;;
10904;SDS011;5505;51.450;9.254;2023-05-02T02:48:33;13.07;;;11.87;;
10904;SDS011;5505;51.450;9.254;2023-05-02T02:51:23;13.63;;;12.23;;
10904;SDS011;5505;51.450;9.254;2023-05-02T02:54:16;13.80;;;12.40;;
10904;SDS011;5505;51.450;9.254;2023-05-02T02:57:06;13.80;;;12.40;;
10904;SDS011;5505;51.450;9.254;2023-05-02T02:59:58;14.30;;;12.90;;
10904;SDS011;5505;51.450;9.254;2023-05-02T03:02:48;14.77;;;13.30;;
10904;SDS011;5505;51.450;9.254;2023-05-02T03:05:35;15.37;;;13.83;;
10904;SDS011;5505;51.450;9.254;2023-05-02T03:08:22;16.80;;;15.17;;
10904;SDS011;5505;51.450;9.254;2023-05-02T03:11:11;16.00;;;14.30;;
10904;SDS011;5505;51.450;9.254;2023-05-02T03:13:58;15.67;;;14.07;;
10904;SDS011;5505;51.450;9.254;2023-05-02T03:16:45;15.23;;;13.67;;
10904;SDS011;5505;51.450;9.254;2023-05-02T03:19:32;19.83;;;15.40;;
10904;SDS011;5505;51.450;9.254;2023-05-02T03:22:19;15.87;;;14.27;;
10904;SDS011;5505;51.450;9.254;2023-05-02T03:25:07;18.10;;;16.23;;
10904;SDS011;5505;51.450;9.254;2023-05-02T03:27:57;19.53;;;17.30;;
10904;SDS011;5505;51.450;9.254;2023-05-02T03:30:44;21.57;;;18.67;;
10904;SDS011;5505;51.450;9.254;2023-05-02T03:33:31;21.53;;;19.23;;
10904;SDS011;5505;51.450;9.254;2023-05-02T03:36:18;24.87;;;20.87;;
10904;SDS011;5505;51.450;9.254;2023-05-02T03:39:05;24.63;;;22.13;;
10904;SDS011;5505;51.450;9.254;2023-05-02T03:41:52;25.17;;;22.67;;
10904;SDS011;5505;51.450;9.254;2023-05-02T03:44:40;24.43;;;21.80;;
10904;SDS011;5505;51.450;9.254;2023-05-02T03:47:28;27.70;;;24.00;;
10904;SDS011;5505;51.450;9.254;2023-05-02T03:50:15;26.80;;;23.90;;
10904;SDS011;5505;51.450;9.254;2023-05-02T03:53:02;29.07;;;24.70;;
10904;SDS011;5505;51.450;9.254;2023-05-02T03:55:49;27.03;;;24.13;;
10904;SDS011;5505;51.450;9.254;2023-05-02T03:58:36;28.40;;;25.37;;
10904;SDS011;5505;51.450;9.254;2023-05-02T04:01:25;29.23;;;26.27;;
10904;SDS011;5505;51.450;9.254;2023-05-02T04:04:12;27.90;;;25.13;;
10904;SDS011;5505;51.450;9.254;2023-05-02T04:06:59;28.20;;;25.27;;
10904;SDS011;5505;51.450;9.254;2023-05-02T04:09:46;30.33;;;26.07;;
10904;SDS011;5505;51.450;9.254;2023-05-02T04:12:33;28.03;;;25.00;;
10904;SDS011;5505;51.450;9.254;2023-05-02T04:15:20;28.50;;;25.50;;
10904;SDS011;5505;51.450;9.254;2023-05-02T04:18:09;27.97;;;24.97;;
10904;SDS011;5505;51.450;9.254;2023-05-02T04:20:56;26.80;;;24.10;;
10904;SDS011;5505;51.450;9.254;2023-05-02T04:23:43;28.00;;;24.97;;
10904;SDS011;5505;51.450;9.254;2023-05-02T04:26:30;28.47;;;24.20;;
10904;SDS011;5505;51.450;9.254;2023-05-02T04:29:17;26.37;;;23.47;;
10904;SDS011;5505;51.450;9.254;2023-05-02T04:32:04;27.53;;;24.13;;
10904;SDS011;5505;51.450;9.254;2023-05-02T04:34:52;25.47;;;22.70;;
10904;SDS011;5505;51.450;9.254;2023-05-02T04:37:39;26.57;;;23.77;;
10904;SDS011;5505;51.450;9.254;2023-05-02T04:40:26;24.80;;;21.83;;
10904;SDS011;5505;51.450;9.254;2023-05-02T04:43:14;22.33;;;19.93;;
10904;SDS011;5505;51.450;9.254;2023-05-02T04:46:01;22.43;;;19.97;;
10904;SDS011;5505;51.450;9.254;2023-05-02T04:48:48;26.13;;;20.20;;
10904;SDS011;5505;51.450;9.254;2023-05-02T04:51:36;23.27;;;19.13;;
10904;SDS011;5505;51.450;9.254;2023-05-02T04:54:23;21.87;;;17.43;;
10904;SDS011;5505;51.450;9.254;2023-05-02T04:57:11;18.70;;;15.93;;
10904;SDS011;5505;51.450;9.254;2023-05-02T04:59:59;20.07;;;16.03;;
10904;SDS011;5505;51.450;9.254;2023-05-02T05:02:46;20.37;;;15.57;;
10904;SDS011;5505;51.450;9.254;2023-05-02T05:05:33;19.37;;;15.30;;
10904;SDS011;5505;51.450;9.254;2023-05-02T05:08:21;19.47;;;16.13;;
10904;SDS011;5505;51.450;9.254;2023-05-02T05:11:08;20.30;;;14.67;;
10904;SDS011;5505;51.450;9.254;2023-05-02T05:13:56;21.87;;;16.23;;
10904;SDS011;5505;51.450;9.254;2023-05-02T05:16:43;19.17;;;15.10;;
10904;SDS011;5505;51.450;9.254;2023-05-02T05:19:30;19.27;;;15.60;;
10904;SDS011;5505;51.450;9.254;2023-05-02T05:22:17;21.70;;;15.57;;
10904;SDS011;5505;51.450;9.254;2023-05-02T05:25:06;19.30;;;15.17;;
10904;SDS011;5505;51.450;9.254;2023-05-02T05:27:53;18.90;;;14.67;;
10904;SDS011;5505;51.450;9.254;2023-05-02T05:30:41;16.70;;;13.60;;
10904;SDS011;5505;51.450;9.254;2023-05-02T05:33:28;17.93;;;13.17;;
10904;SDS011;5505;51.450;9.254;2023-05-02T05:36:15;13.87;;;12.47;;
10904;SDS011;5505;51.450;9.254;2023-05-02T05:39:02;14.77;;;11.53;;
10904;SDS011;5505;51.450;9.254;2023-05-02T05:41:51;14.37;;;11.60;;
10904;SDS011;5505;51.450;9.254;2023-05-02T05:44:38;17.03;;;10.87;;
10904;SDS011;5505;51.450;9.254;2023-05-02T05:47:25;12.43;;;10.67;;
10904;SDS011;5505;51.450;9.254;2023-05-02T05:50:12;15.17;;;11.37;;
10904;SDS011;5505;51.450;9.254;2023-05-02T05:53:00;16.23;;;12.73;;
10904;SDS011;5505;51.450;9.254;2023-05-02T05:55:47;19.00;;;13.63;;
10904;SDS011;5505;51.450;9.254;2023-05-02T05:58:35;17.77;;;13.53;;
10904;SDS011;5505;51.450;9.254;2023-05-02T06:01:22;19.10;;;13.77;;
10904;SDS011;5505;51.450;9.254;2023-05-02T06:04:10;19.83;;;14.37;;
10904;SDS011;5505;51.450;9.254;2023-05-02T06:06:57;20.53;;;14.70;;
10904;SDS011;5505;51.450;9.254;2023-05-02T06:09:45;21.27;;;15.50;;
10904;SDS011;5505;51.450;9.254;2023-05-02T06:12:32;21.37;;;15.73;;
10904;SDS011;5505;51.450;9.254;2023-05-02T06:15:20;21.73;;;16.73;;
10904;SDS011;5505;51.450;9.254;2023-05-02T06:18:07;21.37;;;16.20;;
10904;SDS011;5505;51.450;9.254;2023-05-02T06:20:54;20.57;;;16.23;;
10904;SDS011;5505;51.450;9.254;2023-05-02T06:23:42;23.67;;;17.13;;
10904;SDS011;5505;51.450;9.254;2023-05-02T06:26:29;22.23;;;17.30;;
10904;SDS011;5505;51.450;9.254;2023-05-02T06:29:16;20.93;;;16.97;;
10904;SDS011;5505;51.450;9.254;2023-05-02T06:32:05;19.83;;;16.20;;
10904;SDS011;5505;51.450;9.254;2023-05-02T06:34:52;21.70;;;17.30;;
10904;SDS011;5505;51.450;9.254;2023-05-02T06:37:39;17.03;;;14.93;;
10904;SDS011;5505;51.450;9.254;2023-05-02T06:40:26;18.47;;;15.17;;
10904;SDS011;5505;51.450;9.254;2023-05-02T06:43:13;18.10;;;14.03;;
10904;SDS011;5505;51.450;9.254;2023-05-02T06:46:01;20.47;;;15.67;;
10904;SDS011;5505;51.450;9.254;2023-05-02T06:48:49;16.90;;;12.93;;
10904;SDS011;5505;51.450;9.254;2023-05-02T06:51:36;18.87;;;14.00;;
10904;SDS011;5505;51.450;9.254;2023-05-02T06:54:23;16.93;;;13.37;;
10904;SDS011;5505;51.450;9.254;2023-05-02T06:57:11;19.13;;;15.07;;
10904;SDS011;5505;51.450;9.254;2023-05-02T06:59:58;20.53;;;15.80;;
10904;SDS011;5505;51.450;9.254;2023-05-02T07:02:45;18.40;;;13.33;;
10904;SDS011;5505;51.450;9.254;2023-05-02T07:05:34;17.10;;;13.57;;
10904;SDS011;5505;51.450;9.254;2023-05-02T07:08:21;18.37;;;14.30;;
10904;SDS011;5505;51.450;9.254;2023-05-02T07:11:08;16.87;;;12.83;;
10904;SDS011;5505;51.450;9.254;2023-05-02T07:13:55;18.07;;;12.80;;
10904;SDS011;5505;51.450;9.254;2023-05-02T07:16:42;14.87;;;12.23;;
10904;SDS011;5505;51.450;9.254;2023-05-02T07:19:29;15.47;;;12.33;;
10904;SDS011;5505;51.450;9.254;2023-05-02T07:22:19;18.13;;;12.93;;
10904;SDS011;5505;51.450;9.254;2023-05-02T07:25:06;14.77;;;12.70;;
10904;SDS011;5505;51.450;9.254;2023-05-02T07:27:53;13.43;;;11.23;;
10904;SDS011;5505;51.450;9.254;2023-05-02T07:30:40;15.30;;;11.93;;
10904;SDS011;5505;51.450;9.254;2023-05-02T07:33:28;12.73;;;10.30;;
10904;SDS011;5505;51.450;9.254;2023-05-02T07:36:15;12.07;;;10.50;;
10904;SDS011;5505;51.450;9.254;2023-05-02T07:39:03;13.77;;;10.23;;
10904;SDS011;5505;51.450;9.254;2023-05-02T07:41:50;10.60;;;9.33;;
10904;SDS011;5505;51.450;9.254;2023-05-02T07:44:38;11.07;;;9.77;;
10904;SDS011;5505;51.450;9.254;2023-05-02T07:47:25;13.00;;;10.43;;
10904;SDS011;5505;51.450;9.254;2023-05-02T07:50:13;10.77;;;8.97;;
10904;SDS011;5505;51.450;9.254;2023-05-02T07:53:00;7.70;;;6.00;;
10904;SDS011;5505;51.450;9.254;2023-05-02T07:55:48;7.40;;;6.43;;
10904;SDS011;5505;51.450;9.254;2023-05-02T07:58:35;6.17;;;4.50;;
10904;SDS011;5505;51.450;9.254;2023-05-02T08:01:22;4.80;;;4.07;;
10904;SDS011;5505;51.450;9.254;2023-05-02T08:04:10;4.63;;;4.07;;
10904;SDS011;5505;51.450;9.254;2023-05-02T08:06:57;5.23;;;4.33;;
10904;SDS011;5505;51.450;9.254;2023-05-02T08:09:44;4.87;;;4.37;;
10904;SDS011;5505;51.450;9.254;2023-05-02T08:12:32;4.13;;;3.57;;
10904;SDS011;5505;51.450;9.254;2023-05-02T08:15:23;4.03;;;3.43;;
10904;SDS011;5505;51.450;9.254;2023-05-02T08:18:10;4.00;;;2.70;;
10904;SDS011;5505;51.450;9.254;2023-05-02T08:20:58;2.40;;;2.20;;
10904;SDS011;5505;51.450;9.254;2023-05-02T08:23:45;2.93;;;2.20;;
10904;SDS011;5505;51.450;9.254;2023-05-02T08:26:32;4.07;;;2.00;;
10904;SDS011;5505;51.450;9.254;2023-05-02T08:29:22;3.03;;;2.37;;
10904;SDS011;5505;51.450;9.254;2023-05-02T08:32:09;2.63;;;2.20;;
10904;SDS011;5505;51.450;9.254;2023-05-02T08:34:56;2.23;;;2.03;;
10904;SDS011;5505;51.450;9.254;2023-05-02T08:37:43;2.53;;;2.10;;
10904;SDS011;5505;51.450;9.254;2023-05-02T08:40:31;2.40;;;2.20;;
10904;SDS011;5505;51.450;9.254;2023-05-02T08:43:20;2.47;;;2.17;;
10904;SDS011;5505;51.450;9.254;2023-05-02T08:46:10;2.43;;;2.10;;
10904;SDS011;5505;51.450;9.254;2023-05-02T08:48:57;3.43;;;2.03;;
10904;SDS011;5505;51.450;9.254;2023-05-02T08:51:44;3.30;;;2.30;;
10904;SDS011;5505;51.450;9.254;2023-05-02T08:54:32;2.60;;;2.23;;
10904;SDS011;5505;51.450;9.254;2023-05-02T08:57:20;2.77;;;2.47;;
10904;SDS011;5505;51.450;9.254;2023-05-02T09:00:07;2.17;;;2.00;;
10904;SDS011;5505;51.450;9.254;2023-05-02T09:02:59;4.47;;;3.73;;
10904;SDS011;5505;51.450;9.254;2023-05-02T09:05:51;3.07;;;2.77;;
10904;SDS011;5505;51.450;9.254;2023-05-02T09:08:40;4.03;;;3.43;;
10904;SDS011;5505;51.450;9.254;2023-05-02T09:11:27;3.10;;;2.80;;
10904;SDS011;5505;51.450;9.254;2023-05-02T09:14:14;4.03;;;2.60;;
10904;SDS011;5505;51.450;9.254;2023-05-02T09:17:02;3.73;;;3.43;;
10904;SDS011;5505;51.450;9.254;2023-05-02T09:19:59;2.90;;;2.60;;
10904;SDS011;5505;51.450;9.254;2023-05-02T09:22:47;2.47;;;2.27;;
10904;SDS011;5505;51.450;9.254;2023-05-02T09:25:35;3.60;;;3.30;;
10904;SDS011;5505;51.450;9.254;2023-05-02T09:28:34;4.27;;;3.90;;
10904;SDS011;5505;51.450;9.254;2023-05-02T09:31:24;6.67;;;5.63;;
10904;SDS011;5505;51.450;9.254;2023-05-02T09:34:12;13.27;;;9.53;;
10904;SDS011;5505;51.450;9.254;2023-05-02T09:37:01;11.90;;;7.30;;
10904;SDS011;5505;51.450;9.254;2023-05-02T09:40:03;7.73;;;5.50;;
10904;SDS011;5505;51.450;9.254;2023-05-02T09:42:51;7.00;;;4.63;;
10904;SDS011;5505;51.450;9.254;2023-05-02T09:45:38;2.43;;;2.10;;
10904;SDS011;5505;51.450;9.254;2023-05-02T09:48:25;2.50;;;2.17;;
10904;SDS011;5505;51.450;9.254;2023-05-02T09:51:15;3.00;;;2.40;;
10904;SDS011;5505;51.450;9.254;2023-05-02T09:54:04;4.00;;;2.30;;
10904;SDS011;5505;51.450;9.254;2023-05-02T09:56:51;2.10;;;1.90;;
10904;SDS011;5505;51.450;9.254;2023-05-02T09:59:40;2.43;;;2.20;;
10904;SDS011;5505;51.450;9.254;2023-05-02T10:02:27;3.93;;;2.40;;
10904;SDS011;5505;51.450;9.254;2023-05-02T10:05:16;2.83;;;2.53;;
10904;SDS011;5505;51.450;9.254;2023-05-02T10:08:05;4.27;;;3.00;;
10904;SDS011;5505;51.450;9.254;2023-05-02T10:10:54;2.97;;;2.40;;
10904;SDS011;5505;51.450;9.254;2023-05-02T10:13:42;4.03;;;3.67;;
10904;SDS011;5505;51.450;9.254;2023-05-02T10:16:29;3.03;;;2.37;;
10904;SDS011;5505;51.450;9.254;2023-05-02T10:19:17;3.57;;;2.53;;
10904;SDS011;5505;51.450;9.254;2023-05-02T10:22:06;3.33;;;2.83;;
10904;SDS011;5505;51.450;9.254;2023-05-02T10:24:53;5.43;;;3.23;;
10904;SDS011;5505;51.450;9.254;2023-05-02T10:27:42;4.63;;;3.20;;
10904;SDS011;5505;51.450;9.254;2023-05-02T10:30:29;3.50;;;2.80;;
10904;SDS011;5505;51.450;9.254;2023-05-02T10:33:16;4.07;;;3.00;;
10904;SDS011;5505;51.450;9.254;2023-05-02T10:36:04;7.73;;;3.50;;
10904;SDS011;5505;51.450;9.254;2023-05-02T10:38:53;6.50;;;3.73;;
10904;SDS011;5505;51.450;9.254;2023-05-02T10:41:40;6.43;;;3.83;;
10904;SDS011;5505;51.450;9.254;2023-05-02T10:44:33;10.77;;;4.03;;
10904;SDS011;5505;51.450;9.254;2023-05-02T10:47:20;8.43;;;4.30;;
10904;SDS011;5505;51.450;9.254;2023-05-02T10:50:07;9.57;;;4.63;;
10904;SDS011;5505;51.450;9.254;2023-05-02T10:52:55;5.90;;;4.37;;
10904;SDS011;5505;51.450;9.254;2023-05-02T10:55:42;10.73;;;4.53;;
10904;SDS011;5505;51.450;9.254;2023-05-02T10:58:30;9.00;;;4.53;;
10904;SDS011;5505;51.450;9.254;2023-05-02T11:01:32;8.60;;;4.33;;
10904;SDS011;5505;51.450;9.254;2023-05-02T11:04:20;9.40;;;4.30;;
10904;SDS011;5505;51.450;9.254;2023-05-02T11:07:17;6.73;;;4.07;;
10904;SDS011;5505;51.450;9.254;2023-05-02T11:13:06;9.50;;;4.30;;
10904;SDS011;5505;51.450;9.254;2023-05-02T11:15:53;6.90;;;4.07;;
10904;SDS011;5505;51.450;9.254;2023-05-02T11:21:48;12.57;;;4.07;;
10904;SDS011;5505;51.450;9.254;2023-05-02T11:24:37;7.60;;;4.40;;
10904;SDS011;5505;51.450;9.254;2023-05-02T11:27:37;9.87;;;4.40;;
10904;SDS011;5505;51.450;9.254;2023-05-02T11:30:37;9.70;;;4.60;;
10904;SDS011;5505;51.450;9.254;2023-05-02T11:33:26;10.03;;;5.00;;
10904;SDS011;5505;51.450;9.254;2023-05-02T11:36:14;8.27;;;4.23;;
10904;SDS011;5505;51.450;9.254;2023-05-02T11:39:18;9.30;;;4.77;;
10904;SDS011;5505;51.450;9.254;2023-05-02T11:42:07;11.43;;;4.93;;
10904;SDS011;5505;51.450;9.254;2023-05-02T11:44:54;10.97;;;4.93;;
10904;SDS011;5505;51.450;9.254;2023-05-02T11:47:42;11.20;;;4.93;;
10904;SDS011;5505;51.450;9.254;2023-05-02T11:50:30;8.20;;;4.97;;
10904;SDS011;5505;51.450;9.254;2023-05-02T11:53:17;11.10;;;4.70;;
10904;SDS011;5505;51.450;9.254;2023-05-02T11:56:07;10.40;;;5.30;;
10904;SDS011;5505;51.450;9.254;2023-05-02T11:58:58;10.23;;;4.80;;
10904;SDS011;5505;51.450;9.254;2023-05-02T12:01:48;21.53;;;13.63;;
10904;SDS011;5505;51.450;9.254;2023-05-02T12:04:41;11.60;;;8.00;;
10904;SDS011;5505;51.450;9.254;2023-05-02T12:07:35;11.30;;;5.80;;
10904;SDS011;5505;51.450;9.254;2023-05-02T12:10:22;10.10;;;5.37;;
10904;SDS011;5505;51.450;9.254;2023-05-02T12:13:11;11.40;;;5.50;;
10904;SDS011;5505;51.450;9.254;2023-05-02T12:15:58;8.77;;;5.23;;
10904;SDS011;5505;51.450;9.254;2023-05-02T12:18:45;10.67;;;5.50;;
10904;SDS011;5505;51.450;9.254;2023-05-02T12:21:33;8.77;;;5.20;;
10904;SDS011;5505;51.450;9.254;2023-05-02T12:24:20;13.30;;;5.50;;
10904;SDS011;5505;51.450;9.254;2023-05-02T12:27:07;12.73;;;6.10;;
10904;SDS011;5505;51.450;9.254;2023-05-02T12:29:56;13.23;;;7.20;;
10904;SDS011;5505;51.450;9.254;2023-05-02T12:32:43;15.03;;;7.03;;
10904;SDS011;5505;51.450;9.254;2023-05-02T12:35:31;8.80;;;5.37;;
10904;SDS011;5505;51.450;9.254;2023-05-02T12:38:18;11.20;;;5.93;;
10904;SDS011;5505;51.450;9.254;2023-05-02T12:41:06;10.20;;;5.30;;
10904;SDS011;5505;51.450;9.254;2023-05-02T12:43:53;11.43;;;5.40;;
10904;SDS011;5505;51.450;9.254;2023-05-02T12:46:57;11.63;;;6.00;;
10904;SDS011;5505;51.450;9.254;2023-05-02T12:49:48;9.97;;;5.53;;
10904;SDS011;5505;51.450;9.254;2023-05-02T12:52:45;9.87;;;5.67;;
10904;SDS011;5505;51.450;9.254;2023-05-02T12:55:32;6.93;;;4.83;;
10904;SDS011;5505;51.450;9.254;2023-05-02T12:58:19;7.37;;;4.90;;
10904;SDS011;5505;51.450;9.254;2023-05-02T13:01:09;10.07;;;4.40;;
10904;SDS011;5505;51.450;9.254;2023-05-02T13:03:58;10.77;;;5.17;;
10904;SDS011;5505;51.450;9.254;2023-05-02T13:06:45;12.07;;;5.70;;
10904;SDS011;5505;51.450;9.254;2023-05-02T13:09:32;10.47;;;5.67;;
10904;SDS011;5505;51.450;9.254;2023-05-02T13:12:19;13.03;;;5.20;;
10904;SDS011;5505;51.450;9.254;2023-05-02T13:15:08;12.67;;;5.40;;
10904;SDS011;5505;51.450;9.254;2023-05-02T13:17:55;9.47;;;4.90;;
10904;SDS011;5505;51.450;9.254;2023-05-02T13:20:44;11.13;;;5.00;;
10904;SDS011;5505;51.450;9.254;2023-05-02T13:23:31;12.17;;;4.97;;
10904;SDS011;5505;51.450;9.254;2023-05-02T13:26:18;9.07;;;4.20;;
10904;SDS011;5505;51.450;9.254;2023-05-02T13:29:05;7.20;;;4.27;;
10904;SDS011;5505;51.450;9.254;2023-05-02T13:31:53;7.13;;;3.77;;
10904;SDS011;5505;51.450;9.254;2023-05-02T13:34:40;8.20;;;3.90;;
10904;SDS011;5505;51.450;9.254;2023-05-02T13:37:29;9.13;;;3.47;;
10904;SDS011;5505;51.450;9.254;2023-05-02T13:40:16;6.63;;;3.40;;
10904;SDS011;5505;51.450;9.254;2023-05-02T13:43:03;6.73;;;3.50;;
10904;SDS011;5505;51.450;9.254;2023-05-02T13:45:50;11.27;;;3.73;;
10904;SDS011;5505;51.450;9.254;2023-05-02T13:48:38;10.10;;;4.63;;
10904;SDS011;5505;51.450;9.254;2023-05-02T13:51:25;9.13;;;3.90;;
10904;SDS011;5505;51.450;9.254;2023-05-02T13:54:14;6.90;;;3.60;;
10904;SDS011;5505;51.450;9.254;2023-05-02T13:57:01;8.07;;;3.60;;
10904;SDS011;5505;51.450;9.254;2023-05-02T13:59:49;7.60;;;3.90;;
10904;SDS011;5505;51.450;9.254;2023-05-02T14:02:37;8.00;;;3.90;;
10904;SDS011;5505;51.450;9.254;2023-05-02T14:05:25;7.23;;;4.70;;
10904;SDS011;5505;51.450;9.254;2023-05-02T14:08:12;9.33;;;3.93;;
10904;SDS011;5505;51.450;9.254;2023-05-02T14:11:03;13.43;;;4.13;;
10904;SDS011;5505;51.450;9.254;2023-05-02T14:13:51;8.10;;;4.07;;
10904;SDS011;5505;51.450;9.254;2023-05-02T14:16:38;12.10;;;3.87;;
10904;SDS011;5505;51.450;9.254;2023-05-02T14:19:26;6.97;;;4.00;;
10904;SDS011;5505;51.450;9.254;2023-05-02T14:22:13;6.43;;;4.20;;
10904;SDS011;5505;51.450;9.254;2023-05-02T14:25:00;8.03;;;3.93;;
10904;SDS011;5505;51.450;9.254;2023-05-02T14:27:49;10.70;;;4.40;;
10904;SDS011;5505;51.450;9.254;2023-05-02T14:30:36;12.50;;;6.33;;
10904;SDS011;5505;51.450;9.254;2023-05-02T14:33:23;24.13;;;11.33;;
10904;SDS011;5505;51.450;9.254;2023-05-02T14:36:11;25.33;;;14.43;;
10904;SDS011;5505;51.450;9.254;2023-05-02T14:38:58;17.03;;;9.50;;
10904;SDS011;5505;51.450;9.254;2023-05-02T14:41:45;18.00;;;12.17;;
10904;SDS011;5505;51.450;9.254;2023-05-02T14:44:33;12.80;;;7.77;;
10904;SDS011;5505;51.450;9.254;2023-05-02T14:47:20;7.03;;;4.53;;
10904;SDS011;5505;51.450;9.254;2023-05-02T14:50:08;6.40;;;4.23;;
10904;SDS011;5505;51.450;9.254;2023-05-02T14:52:55;6.73;;;3.47;;
10904;SDS011;5505;51.450;9.254;2023-05-02T14:55:42;5.53;;;3.37;;
10904;SDS011;5505;51.450;9.254;2023-05-02T14:58:29;6.70;;;3.83;;
10904;SDS011;5505;51.450;9.254;2023-05-02T15:01:18;7.97;;;4.10;;
10904;SDS011;5505;51.450;9.254;2023-05-02T15:04:05;5.47;;;3.40;;
10904;SDS011;5505;51.450;9.254;2023-05-02T15:06:52;8.53;;;3.77;;
10904;SDS011;5505;51.450;9.254;2023-05-02T15:09:40;7.27;;;4.00;;
10904;SDS011;5505;51.450;9.254;2023-05-02T15:12:27;6.47;;;3.43;;
10904;SDS011;5505;51.450;9.254;2023-05-02T15:15:15;8.57;;;3.77;;
10904;SDS011;5505;51.450;9.254;2023-05-02T15:18:03;11.70;;;4.10;;
10904;SDS011;5505;51.450;9.254;2023-05-02T15:20:50;7.77;;;3.90;;
10904;SDS011;5505;51.450;9.254;2023-05-02T15:23:37;7.80;;;3.77;;
10904;SDS011;5505;51.450;9.254;2023-05-02T15:26:24;7.00;;;3.87;;
10904;SDS011;5505;51.450;9.254;2023-05-02T15:29:12;10.30;;;4.60;;
10904;SDS011;5505;51.450;9.254;2023-05-02T15:31:59;8.67;;;3.83;;
10904;SDS011;5505;51.450;9.254;2023-05-02T15:34:48;5.83;;;3.77;;
10904;SDS011;5505;51.450;9.254;2023-05-02T15:37:35;7.93;;;4.03;;
10904;SDS011;5505;51.450;9.254;2023-05-02T15:40:22;8.57;;;4.17;;
10904;SDS011;5505;51.450;9.254;2023-05-02T15:43:11;11.27;;;4.43;;
10904;SDS011;5505;51.450;9.254;2023-05-02T15:45:58;9.53;;;4.67;;
10904;SDS011;5505;51.450;9.254;2023-05-02T15:48:46;8.17;;;4.27;;
10904;SDS011;5505;51.450;9.254;2023-05-02T15:51:34;8.30;;;4.50;;
10904;SDS011;5505;51.450;9.254;2023-05-02T15:54:21;10.93;;;4.70;;
10904;SDS011;5505;51.450;9.254;2023-05-02T15:57:08;8.73;;;4.40;;
10904;SDS011;5505;51.450;9.254;2023-05-02T15:59:56;10.73;;;4.33;;
10904;SDS011;5505;51.450;9.254;2023-05-02T16:02:43;6.13;;;4.20;;
10904;SDS011;5505;51.450;9.254;2023-05-02T16:05:30;10.10;;;4.23;;
10904;SDS011;5505;51.450;9.254;2023-05-02T16:08:19;5.93;;;3.63;;
10904;SDS011;5505;51.450;9.254;2023-05-02T16:11:06;9.97;;;4.07;;
10904;SDS011;5505;51.450;9.254;2023-05-02T16:13:53;10.60;;;3.60;;
10904;SDS011;5505;51.450;9.254;2023-05-02T16:16:40;7.40;;;3.93;;
10904;SDS011;5505;51.450;9.254;2023-05-02T16:19:28;5.90;;;3.77;;
10904;SDS011;5505;51.450;9.254;2023-05-02T16:22:15;5.73;;;3.80;;
10904;SDS011;5505;51.450;9.254;2023-05-02T16:25:04;8.40;;;3.67;;
10904;SDS011;5505;51.450;9.254;2023-05-02T16:27:51;7.20;;;3.40;;
10904;SDS011;5505;51.450;9.254;2023-05-02T16:30:38;7.90;;;3.73;;
10904;SDS011;5505;51.450;9.254;2023-05-02T16:33:25;7.50;;;3.90;;
10904;SDS011;5505;51.450;9.254;2023-05-02T16:36:12;8.33;;;3.87;;
10904;SDS011;5505;51.450;9.254;2023-05-02T16:39:00;6.93;;;3.40;;
10904;SDS011;5505;51.450;9.254;2023-05-02T16:41:48;7.63;;;3.37;;
10904;SDS011;5505;51.450;9.254;2023-05-02T16:44:35;4.63;;;3.00;;
10904;SDS011;5505;51.450;9.254;2023-05-02T16:47:22;3.73;;;3.03;;
10904;SDS011;5505;51.450;9.254;2023-05-02T16:50:09;7.90;;;3.73;;
10904;SDS011;5505;51.450;9.254;2023-05-02T16:52:57;7.07;;;3.23;;
10904;SDS011;5505;51.450;9.254;2023-05-02T16:55:44;6.33;;;3.00;;
10904;SDS011;5505;51.450;9.254;2023-05-02T16:58:32;6.63;;;2.80;;
10904;SDS011;5505;51.450;9.254;2023-05-02T17:01:19;4.80;;;3.00;;
10904;SDS011;5505;51.450;9.254;2023-05-02T17:04:07;4.17;;;2.90;;